Leaman Place, Pennsylvania
Current Conditions -  °F | °C
As of 4:15 PM on Saturday 22 Nov 2014 (Local Time) from KMQS Reporting Station
Overcast Overcast  
Wind Chill: 34°   Ceiling: 6000
Heat Index: 39°   Visibility: 10mi
Dew Point: 19°   Wind: 7mph
Humidity: 45%   Direction: 200°SSW
Pressure: 30.28"   Gusts: NA
Location:  39.9757°N, 76.0913°W
Report Text: KMQS 222115Z AUTO 20006KT 10SM OVC060 04/M07 A3028 RMK AO2
Loading
Personal Weather Stations






























Interactive Weather Map New forecast layout! Learn more

10-Day Weather Forecast

Advertisements
Track Severe Weather on mobile